sensor_id;sensor_type;location;lat;lon;timestamp;P1;durP1;ratioP1;P2;durP2;ratioP2
37891;SDS011;45797;47.466;9.486;2023-07-22T00:02:02;3.45;;;1.58;;
37891;SDS011;45797;47.466;9.486;2023-07-22T00:12:05;3.28;;;1.52;;
37891;SDS011;45797;47.466;9.486;2023-07-22T00:17:17;3.35;;;1.60;;
37891;SDS011;45797;47.466;9.486;2023-07-22T00:22:22;4.18;;;1.55;;
37891;SDS011;45797;47.466;9.486;2023-07-22T00:27:22;2.80;;;1.40;;
37891;SDS011;45797;47.466;9.486;2023-07-22T00:32:23;4.82;;;1.40;;
37891;SDS011;45797;47.466;9.486;2023-07-22T00:37:24;5.03;;;1.50;;
37891;SDS011;45797;47.466;9.486;2023-07-22T00:42:27;3.75;;;1.70;;
37891;SDS011;45797;47.466;9.486;2023-07-22T00:47:27;3.22;;;1.50;;
37891;SDS011;45797;47.466;9.486;2023-07-22T00:52:27;2.90;;;1.60;;
37891;SDS011;45797;47.466;9.486;2023-07-22T00:57:28;3.03;;;1.67;;
37891;SDS011;45797;47.466;9.486;2023-07-22T01:02:36;2.75;;;1.42;;
37891;SDS011;45797;47.466;9.486;2023-07-22T01:07:39;4.82;;;1.67;;
37891;SDS011;45797;47.466;9.486;2023-07-22T01:12:40;2.80;;;1.50;;
37891;SDS011;45797;47.466;9.486;2023-07-22T01:17:40;3.45;;;1.27;;
37891;SDS011;45797;47.466;9.486;2023-07-22T01:27:55;3.78;;;1.38;;
37891;SDS011;45797;47.466;9.486;2023-07-22T01:32:55;3.38;;;1.48;;
37891;SDS011;45797;47.466;9.486;2023-07-22T01:37:57;3.28;;;1.30;;
37891;SDS011;45797;47.466;9.486;2023-07-22T01:42:58;2.05;;;1.20;;
37891;SDS011;45797;47.466;9.486;2023-07-22T01:47:59;3.45;;;1.27;;
37891;SDS011;45797;47.466;9.486;2023-07-22T01:52:59;2.67;;;1.30;;
37891;SDS011;45797;47.466;9.486;2023-07-22T01:58:00;3.33;;;1.10;;
37891;SDS011;45797;47.466;9.486;2023-07-22T02:03:01;2.55;;;1.13;;
37891;SDS011;45797;47.466;9.486;2023-07-22T02:08:01;2.83;;;1.20;;
37891;SDS011;45797;47.466;9.486;2023-07-22T02:23:49;2.55;;;1.40;;
37891;SDS011;45797;47.466;9.486;2023-07-22T02:28:49;2.95;;;1.63;;
37891;SDS011;45797;47.466;9.486;2023-07-22T02:33:49;3.95;;;1.70;;
37891;SDS011;45797;47.466;9.486;2023-07-22T02:39:05;3.85;;;1.40;;
37891;SDS011;45797;47.466;9.486;2023-07-22T02:44:08;2.53;;;1.30;;
37891;SDS011;45797;47.466;9.486;2023-07-22T02:49:09;2.58;;;1.33;;
37891;SDS011;45797;47.466;9.486;2023-07-22T02:54:16;2.75;;;1.40;;
37891;SDS011;45797;47.466;9.486;2023-07-22T02:59:17;3.08;;;1.35;;
37891;SDS011;45797;47.466;9.486;2023-07-22T03:04:18;3.05;;;1.30;;
37891;SDS011;45797;47.466;9.486;2023-07-22T03:09:19;3.25;;;1.45;;
37891;SDS011;45797;47.466;9.486;2023-07-22T03:19:26;2.78;;;1.42;;
37891;SDS011;45797;47.466;9.486;2023-07-22T03:24:27;2.65;;;1.23;;
37891;SDS011;45797;47.466;9.486;2023-07-22T03:35:01;4.18;;;1.65;;
37891;SDS011;45797;47.466;9.486;2023-07-22T03:40:12;3.20;;;1.13;;
37891;SDS011;45797;47.466;9.486;2023-07-22T03:45:33;2.85;;;1.45;;
37891;SDS011;45797;47.466;9.486;2023-07-22T03:50:35;2.85;;;1.42;;
37891;SDS011;45797;47.466;9.486;2023-07-22T03:55:36;3.00;;;1.45;;
37891;SDS011;45797;47.466;9.486;2023-07-22T04:00:38;3.92;;;1.60;;
37891;SDS011;45797;47.466;9.486;2023-07-22T04:05:38;3.25;;;1.40;;
37891;SDS011;45797;47.466;9.486;2023-07-22T04:10:40;4.13;;;1.17;;
37891;SDS011;45797;47.466;9.486;2023-07-22T04:15:47;3.10;;;1.27;;
37891;SDS011;45797;47.466;9.486;2023-07-22T04:20:47;3.42;;;1.30;;
37891;SDS011;45797;47.466;9.486;2023-07-22T04:25:50;2.80;;;1.30;;
37891;SDS011;45797;47.466;9.486;2023-07-22T04:30:58;3.20;;;1.25;;
37891;SDS011;45797;47.466;9.486;2023-07-22T04:35:59;2.38;;;1.15;;
37891;SDS011;45797;47.466;9.486;2023-07-22T04:41:07;2.55;;;1.20;;
37891;SDS011;45797;47.466;9.486;2023-07-22T04:46:14;2.08;;;1.10;;
37891;SDS011;45797;47.466;9.486;2023-07-22T04:51:17;4.20;;;1.50;;
37891;SDS011;45797;47.466;9.486;2023-07-22T04:56:24;2.42;;;1.30;;
37891;SDS011;45797;47.466;9.486;2023-07-22T05:01:25;3.15;;;1.23;;
37891;SDS011;45797;47.466;9.486;2023-07-22T05:06:28;2.40;;;1.20;;
37891;SDS011;45797;47.466;9.486;2023-07-22T05:11:44;2.67;;;1.27;;
37891;SDS011;45797;47.466;9.486;2023-07-22T05:16:45;3.05;;;1.30;;
37891;SDS011;45797;47.466;9.486;2023-07-22T05:21:45;4.68;;;1.63;;
37891;SDS011;45797;47.466;9.486;2023-07-22T05:26:47;2.35;;;1.27;;
37891;SDS011;45797;47.466;9.486;2023-07-22T05:31:49;3.25;;;1.50;;
37891;SDS011;45797;47.466;9.486;2023-07-22T05:36:52;3.00;;;1.50;;
37891;SDS011;45797;47.466;9.486;2023-07-22T05:41:53;3.47;;;1.40;;
37891;SDS011;45797;47.466;9.486;2023-07-22T05:52:07;3.15;;;1.48;;
37891;SDS011;45797;47.466;9.486;2023-07-22T05:57:09;3.03;;;1.40;;
37891;SDS011;45797;47.466;9.486;2023-07-22T06:02:23;3.60;;;1.45;;
37891;SDS011;45797;47.466;9.486;2023-07-22T06:07:31;4.00;;;1.30;;
37891;SDS011;45797;47.466;9.486;2023-07-22T06:12:31;2.83;;;1.38;;
37891;SDS011;45797;47.466;9.486;2023-07-22T06:17:33;3.67;;;1.50;;
37891;SDS011;45797;47.466;9.486;2023-07-22T06:22:34;2.90;;;1.40;;
37891;SDS011;45797;47.466;9.486;2023-07-22T06:27:35;3.83;;;1.45;;
37891;SDS011;45797;47.466;9.486;2023-07-22T06:38:06;2.20;;;1.27;;
37891;SDS011;45797;47.466;9.486;2023-07-22T06:43:09;3.67;;;1.60;;
37891;SDS011;45797;47.466;9.486;2023-07-22T06:48:25;3.53;;;1.30;;
37891;SDS011;45797;47.466;9.486;2023-07-22T07:00:05;5.05;;;1.45;;
37891;SDS011;45797;47.466;9.486;2023-07-22T07:05:08;3.00;;;1.48;;
37891;SDS011;45797;47.466;9.486;2023-07-22T07:10:10;3.22;;;1.45;;
37891;SDS011;45797;47.466;9.486;2023-07-22T07:15:10;2.80;;;1.55;;
37891;SDS011;45797;47.466;9.486;2023-07-22T07:25:14;3.58;;;1.80;;
37891;SDS011;45797;47.466;9.486;2023-07-22T07:30:15;3.10;;;1.40;;
37891;SDS011;45797;47.466;9.486;2023-07-22T07:35:22;3.83;;;1.70;;
37891;SDS011;45797;47.466;9.486;2023-07-22T07:40:26;3.03;;;1.40;;
37891;SDS011;45797;47.466;9.486;2023-07-22T07:45:26;3.05;;;1.75;;
37891;SDS011;45797;47.466;9.486;2023-07-22T07:50:26;2.72;;;1.50;;
37891;SDS011;45797;47.466;9.486;2023-07-22T08:00:38;4.47;;;1.70;;
37891;SDS011;45797;47.466;9.486;2023-07-22T08:05:39;5.63;;;2.30;;
37891;SDS011;45797;47.466;9.486;2023-07-22T08:16:15;6.90;;;3.83;;
37891;SDS011;45797;47.466;9.486;2023-07-22T08:26:48;8.20;;;4.60;;
37891;SDS011;45797;47.466;9.486;2023-07-22T08:31:58;6.43;;;3.90;;
37891;SDS011;45797;47.466;9.486;2023-07-22T08:37:01;7.47;;;3.55;;
37891;SDS011;45797;47.466;9.486;2023-07-22T08:42:11;11.50;;;7.20;;
37891;SDS011;45797;47.466;9.486;2023-07-22T08:47:14;4.40;;;2.10;;
37891;SDS011;45797;47.466;9.486;2023-07-22T08:52:18;6.85;;;2.97;;
37891;SDS011;45797;47.466;9.486;2023-07-22T08:57:19;6.47;;;4.05;;
37891;SDS011;45797;47.466;9.486;2023-07-22T09:02:23;10.85;;;6.82;;
37891;SDS011;45797;47.466;9.486;2023-07-22T09:07:26;7.40;;;3.58;;
37891;SDS011;45797;47.466;9.486;2023-07-22T09:12:37;4.60;;;2.60;;
37891;SDS011;45797;47.466;9.486;2023-07-22T09:17:41;4.25;;;2.40;;
37891;SDS011;45797;47.466;9.486;2023-07-22T09:22:44;5.47;;;3.47;;
37891;SDS011;45797;47.466;9.486;2023-07-22T09:27:51;7.63;;;3.78;;
37891;SDS011;45797;47.466;9.486;2023-07-22T09:32:54;5.35;;;2.58;;
37891;SDS011;45797;47.466;9.486;2023-07-22T09:37:56;4.25;;;2.50;;
37891;SDS011;45797;47.466;9.486;2023-07-22T09:43:08;4.53;;;2.10;;
37891;SDS011;45797;47.466;9.486;2023-07-22T09:48:11;5.75;;;3.28;;
37891;SDS011;45797;47.466;9.486;2023-07-22T09:53:15;3.72;;;1.95;;
37891;SDS011;45797;47.466;9.486;2023-07-22T09:58:16;11.85;;;8.00;;
37891;SDS011;45797;47.466;9.486;2023-07-22T10:03:23;8.25;;;5.82;;
37891;SDS011;45797;47.466;9.486;2023-07-22T10:08:30;6.43;;;3.92;;
37891;SDS011;45797;47.466;9.486;2023-07-22T10:13:45;5.32;;;2.92;;
37891;SDS011;45797;47.466;9.486;2023-07-22T10:18:51;11.48;;;7.30;;
37891;SDS011;45797;47.466;9.486;2023-07-22T10:23:54;11.02;;;6.70;;
37891;SDS011;45797;47.466;9.486;2023-07-22T10:28:56;4.57;;;2.10;;
37891;SDS011;45797;47.466;9.486;2023-07-22T10:34:00;13.77;;;7.18;;
37891;SDS011;45797;47.466;9.486;2023-07-22T10:39:07;11.77;;;5.68;;
37891;SDS011;45797;47.466;9.486;2023-07-22T10:44:09;7.32;;;3.95;;
37891;SDS011;45797;47.466;9.486;2023-07-22T10:49:19;6.85;;;2.55;;
37891;SDS011;45797;47.466;9.486;2023-07-22T10:54:34;7.03;;;4.25;;
37891;SDS011;45797;47.466;9.486;2023-07-22T11:04:55;5.80;;;2.95;;
37891;SDS011;45797;47.466;9.486;2023-07-22T11:09:56;4.63;;;2.80;;
37891;SDS011;45797;47.466;9.486;2023-07-22T11:15:05;3.50;;;1.90;;
37891;SDS011;45797;47.466;9.486;2023-07-22T11:25:09;5.25;;;1.98;;
37891;SDS011;45797;47.466;9.486;2023-07-22T11:30:24;4.40;;;2.85;;
37891;SDS011;45797;47.466;9.486;2023-07-22T11:35:27;3.08;;;2.00;;
37891;SDS011;45797;47.466;9.486;2023-07-22T11:45:39;5.60;;;2.70;;
37891;SDS011;45797;47.466;9.486;2023-07-22T11:50:45;3.85;;;2.00;;
37891;SDS011;45797;47.466;9.486;2023-07-22T11:55:46;3.05;;;1.90;;
37891;SDS011;45797;47.466;9.486;2023-07-22T12:06:13;3.17;;;1.58;;
37891;SDS011;45797;47.466;9.486;2023-07-22T12:11:23;3.55;;;1.77;;
37891;SDS011;45797;47.466;9.486;2023-07-22T12:16:26;3.63;;;1.70;;
37891;SDS011;45797;47.466;9.486;2023-07-22T12:26:33;3.45;;;1.65;;
37891;SDS011;45797;47.466;9.486;2023-07-22T12:36:44;2.72;;;1.52;;
37891;SDS011;45797;47.466;9.486;2023-07-22T12:41:44;3.03;;;1.50;;
37891;SDS011;45797;47.466;9.486;2023-07-22T12:46:45;2.75;;;1.50;;
37891;SDS011;45797;47.466;9.486;2023-07-22T12:51:52;2.53;;;1.55;;
37891;SDS011;45797;47.466;9.486;2023-07-22T12:56:54;2.78;;;1.70;;
37891;SDS011;45797;47.466;9.486;2023-07-22T13:01:54;3.28;;;1.70;;
37891;SDS011;45797;47.466;9.486;2023-07-22T13:06:58;2.67;;;1.40;;
37891;SDS011;45797;47.466;9.486;2023-07-22T13:17:10;2.72;;;1.42;;
37891;SDS011;45797;47.466;9.486;2023-07-22T13:32:17;3.45;;;1.48;;
37891;SDS011;45797;47.466;9.486;2023-07-22T13:37:26;3.53;;;2.00;;
37891;SDS011;45797;47.466;9.486;2023-07-22T13:42:26;3.13;;;1.70;;
37891;SDS011;45797;47.466;9.486;2023-07-22T13:52:30;3.33;;;1.70;;
37891;SDS011;45797;47.466;9.486;2023-07-22T13:57:31;3.15;;;1.67;;
37891;SDS011;45797;47.466;9.486;2023-07-22T14:02:33;3.05;;;1.70;;
37891;SDS011;45797;47.466;9.486;2023-07-22T14:12:40;2.40;;;1.35;;
37891;SDS011;45797;47.466;9.486;2023-07-22T14:17:41;3.95;;;1.67;;
37891;SDS011;45797;47.466;9.486;2023-07-22T14:22:42;2.80;;;1.45;;
37891;SDS011;45797;47.466;9.486;2023-07-22T14:27:45;3.15;;;1.50;;
37891;SDS011;45797;47.466;9.486;2023-07-22T14:32:45;4.65;;;1.80;;
37891;SDS011;45797;47.466;9.486;2023-07-22T14:37:54;3.65;;;2.10;;
37891;SDS011;45797;47.466;9.486;2023-07-22T14:42:56;2.83;;;1.70;;
37891;SDS011;45797;47.466;9.486;2023-07-22T14:47:57;2.67;;;1.58;;
37891;SDS011;45797;47.466;9.486;2023-07-22T14:52:57;2.55;;;1.50;;
37891;SDS011;45797;47.466;9.486;2023-07-22T14:57:59;4.07;;;1.70;;
37891;SDS011;45797;47.466;9.486;2023-07-22T15:03:00;4.32;;;1.60;;
37891;SDS011;45797;47.466;9.486;2023-07-22T15:08:16;3.20;;;1.52;;
37891;SDS011;45797;47.466;9.486;2023-07-22T15:13:17;2.60;;;1.45;;
37891;SDS011;45797;47.466;9.486;2023-07-22T15:28:29;3.65;;;1.70;;
37891;SDS011;45797;47.466;9.486;2023-07-22T15:33:44;2.97;;;1.60;;
37891;SDS011;45797;47.466;9.486;2023-07-22T15:38:44;2.50;;;1.55;;
37891;SDS011;45797;47.466;9.486;2023-07-22T15:43:44;2.60;;;1.65;;
37891;SDS011;45797;47.466;9.486;2023-07-22T15:48:45;3.22;;;1.75;;
37891;SDS011;45797;47.466;9.486;2023-07-22T15:53:48;3.00;;;1.73;;
37891;SDS011;45797;47.466;9.486;2023-07-22T15:58:48;2.88;;;1.63;;
37891;SDS011;45797;47.466;9.486;2023-07-22T16:03:50;3.50;;;1.50;;
37891;SDS011;45797;47.466;9.486;2023-07-22T16:09:01;3.47;;;1.52;;
37891;SDS011;45797;47.466;9.486;2023-07-22T16:14:01;2.88;;;1.60;;
37891;SDS011;45797;47.466;9.486;2023-07-22T16:19:05;4.60;;;1.83;;
37891;SDS011;45797;47.466;9.486;2023-07-22T16:24:05;3.70;;;1.50;;
37891;SDS011;45797;47.466;9.486;2023-07-22T16:29:06;4.88;;;1.70;;
37891;SDS011;45797;47.466;9.486;2023-07-22T16:34:07;3.08;;;1.80;;
37891;SDS011;45797;47.466;9.486;2023-07-22T16:39:08;2.67;;;1.75;;
37891;SDS011;45797;47.466;9.486;2023-07-22T16:44:09;3.30;;;2.00;;
37891;SDS011;45797;47.466;9.486;2023-07-22T16:49:10;3.20;;;2.03;;
37891;SDS011;45797;47.466;9.486;2023-07-22T16:54:12;3.40;;;2.00;;
37891;SDS011;45797;47.466;9.486;2023-07-22T17:04:24;3.20;;;1.98;;
37891;SDS011;45797;47.466;9.486;2023-07-22T17:09:25;4.88;;;1.83;;
37891;SDS011;45797;47.466;9.486;2023-07-22T17:14:26;2.80;;;2.00;;
37891;SDS011;45797;47.466;9.486;2023-07-22T17:19:37;4.45;;;1.77;;
37891;SDS011;45797;47.466;9.486;2023-07-22T17:29:42;3.53;;;1.80;;
37891;SDS011;45797;47.466;9.486;2023-07-22T17:34:43;3.22;;;1.80;;
37891;SDS011;45797;47.466;9.486;2023-07-22T17:39:44;3.42;;;2.00;;
37891;SDS011;45797;47.466;9.486;2023-07-22T17:44:50;2.90;;;1.58;;
37891;SDS011;45797;47.466;9.486;2023-07-22T17:50:07;3.15;;;1.92;;
37891;SDS011;45797;47.466;9.486;2023-07-22T17:55:09;2.50;;;1.42;;
37891;SDS011;45797;47.466;9.486;2023-07-22T18:05:17;3.33;;;1.83;;
37891;SDS011;45797;47.466;9.486;2023-07-22T18:10:24;4.35;;;1.80;;
37891;SDS011;45797;47.466;9.486;2023-07-22T18:15:24;2.90;;;1.65;;
37891;SDS011;45797;47.466;9.486;2023-07-22T18:20:32;3.08;;;1.75;;
37891;SDS011;45797;47.466;9.486;2023-07-22T18:30:41;3.08;;;1.63;;
37891;SDS011;45797;47.466;9.486;2023-07-22T18:35:45;4.40;;;1.88;;
37891;SDS011;45797;47.466;9.486;2023-07-22T18:40:49;3.13;;;1.67;;
37891;SDS011;45797;47.466;9.486;2023-07-22T18:45:50;4.10;;;1.65;;
37891;SDS011;45797;47.466;9.486;2023-07-22T18:50:54;2.50;;;1.48;;
37891;SDS011;45797;47.466;9.486;2023-07-22T18:55:56;3.10;;;1.65;;
37891;SDS011;45797;47.466;9.486;2023-07-22T19:00:56;3.08;;;1.67;;
37891;SDS011;45797;47.466;9.486;2023-07-22T19:05:57;3.28;;;1.55;;
37891;SDS011;45797;47.466;9.486;2023-07-22T19:11:04;2.90;;;1.73;;
37891;SDS011;45797;47.466;9.486;2023-07-22T19:16:06;3.20;;;1.50;;
37891;SDS011;45797;47.466;9.486;2023-07-22T19:21:07;3.05;;;1.67;;
37891;SDS011;45797;47.466;9.486;2023-07-22T19:26:13;3.17;;;1.50;;
37891;SDS011;45797;47.466;9.486;2023-07-22T19:36:38;4.28;;;1.50;;
37891;SDS011;45797;47.466;9.486;2023-07-22T19:41:41;3.13;;;1.60;;
37891;SDS011;45797;47.466;9.486;2023-07-22T19:46:48;3.15;;;1.35;;
37891;SDS011;45797;47.466;9.486;2023-07-22T19:51:50;2.95;;;1.38;;
37891;SDS011;45797;47.466;9.486;2023-07-22T20:07:59;3.67;;;1.95;;
37891;SDS011;45797;47.466;9.486;2023-07-22T20:18:23;2.65;;;1.38;;
37891;SDS011;45797;47.466;9.486;2023-07-22T20:23:32;3.88;;;1.55;;
37891;SDS011;45797;47.466;9.486;2023-07-22T20:28:34;5.32;;;1.65;;
37891;SDS011;45797;47.466;9.486;2023-07-22T20:33:34;3.13;;;1.67;;
37891;SDS011;45797;47.466;9.486;2023-07-22T20:43:39;4.00;;;1.80;;
37891;SDS011;45797;47.466;9.486;2023-07-22T20:48:40;3.22;;;1.58;;
37891;SDS011;45797;47.466;9.486;2023-07-22T20:53:42;5.03;;;1.52;;
37891;SDS011;45797;47.466;9.486;2023-07-22T20:58:50;3.90;;;1.75;;
37891;SDS011;45797;47.466;9.486;2023-07-22T21:03:52;3.28;;;1.60;;
37891;SDS011;45797;47.466;9.486;2023-07-22T21:08:55;2.88;;;1.42;;
37891;SDS011;45797;47.466;9.486;2023-07-22T21:14:02;3.25;;;1.50;;
37891;SDS011;45797;47.466;9.486;2023-07-22T21:19:11;4.82;;;1.73;;
37891;SDS011;45797;47.466;9.486;2023-07-22T21:34:35;3.13;;;1.50;;
37891;SDS011;45797;47.466;9.486;2023-07-22T21:39:38;3.95;;;1.50;;
37891;SDS011;45797;47.466;9.486;2023-07-22T21:49:56;4.03;;;1.60;;
37891;SDS011;45797;47.466;9.486;2023-07-22T21:54:58;3.03;;;1.35;;
37891;SDS011;45797;47.466;9.486;2023-07-22T22:00:05;3.47;;;1.48;;
37891;SDS011;45797;47.466;9.486;2023-07-22T22:05:18;2.83;;;1.38;;
37891;SDS011;45797;47.466;9.486;2023-07-22T22:10:24;3.53;;;1.50;;
37891;SDS011;45797;47.466;9.486;2023-07-22T22:15:42;3.60;;;1.70;;
37891;SDS011;45797;47.466;9.486;2023-07-22T22:20:44;3.00;;;1.52;;
37891;SDS011;45797;47.466;9.486;2023-07-22T22:25:44;2.70;;;1.33;;
37891;SDS011;45797;47.466;9.486;2023-07-22T22:30:46;2.63;;;1.27;;
37891;SDS011;45797;47.466;9.486;2023-07-22T22:35:47;4.75;;;1.50;;
37891;SDS011;45797;47.466;9.486;2023-07-22T22:52:48;2.95;;;1.40;;
37891;SDS011;45797;47.466;9.486;2023-07-22T22:57:49;2.83;;;1.42;;
37891;SDS011;45797;47.466;9.486;2023-07-22T23:02:50;3.60;;;1.40;;
37891;SDS011;45797;47.466;9.486;2023-07-22T23:07:59;3.03;;;1.52;;
37891;SDS011;45797;47.466;9.486;2023-07-22T23:13:09;3.30;;;1.80;;
37891;SDS011;45797;47.466;9.486;2023-07-22T23:18:10;3.25;;;1.50;;
37891;SDS011;45797;47.466;9.486;2023-07-22T23:28:21;2.70;;;1.40;;
37891;SDS011;45797;47.466;9.486;2023-07-22T23:33:22;5.57;;;1.58;;
37891;SDS011;45797;47.466;9.486;2023-07-22T23:38:26;2.58;;;1.27;;
37891;SDS011;45797;47.466;9.486;2023-07-22T23:43:28;2.40;;;1.17;;
37891;SDS011;45797;47.466;9.486;2023-07-22T23:48:28;3.08;;;1.30;;
37891;SDS011;45797;47.466;9.486;2023-07-22T23:53:30;2.35;;;1.10;;
